createdAt,value
2022-11-19T00:00:45.943Z,0.47
2022-11-19T00:05:49.763Z,0.41
2022-11-19T00:10:51.636Z,0.37
2022-11-19T00:15:53.405Z,0.35
2022-11-19T00:20:56.538Z,0.34
2022-11-19T00:26:08.515Z,0.31
2022-11-19T00:31:13.799Z,0.26
2022-11-19T00:36:15.910Z,0.21
2022-11-19T00:41:17.799Z,0.19
2022-11-19T00:46:26.033Z,0.14
2022-11-19T00:51:30.616Z,0.14
2022-11-19T00:56:32.791Z,0.17
2022-11-19T01:01:34.768Z,0.19
2022-11-19T01:06:37.061Z,0.16
2022-11-19T01:11:39.281Z,0.09
2022-11-19T01:16:41.923Z,0.04
2022-11-19T01:21:43.945Z,0.02
2022-11-19T01:26:46.340Z,-0.01
2022-11-19T01:31:48.493Z,-0.05
2022-11-19T01:36:50.911Z,-0.10
2022-11-19T01:41:52.706Z,-0.16
2022-11-19T01:46:54.448Z,-0.21
2022-11-19T01:52:00.924Z,-0.24
2022-11-19T01:57:09.103Z,-0.29
2022-11-19T02:02:10.964Z,-0.36
2022-11-19T02:07:14.259Z,-0.39
2022-11-19T02:12:41.127Z,-0.44
2022-11-19T02:17:53.042Z,-0.49
2022-11-19T02:23:16.678Z,-0.53
2022-11-19T02:28:36.958Z,-0.57
2022-11-19T02:33:54.816Z,-0.60
2022-11-19T02:39:04.987Z,-0.63
2022-11-19T02:44:34.416Z,-0.68
2022-11-19T02:49:41.862Z,-0.70
2022-11-19T02:54:43.847Z,-0.72
2022-11-19T03:00:15.185Z,-0.74
2022-11-19T03:05:21.639Z,-0.78
2022-11-19T03:10:28.868Z,-0.78
2022-11-19T03:16:07.048Z,-0.79
2022-11-19T03:21:35.517Z,-0.80
2022-11-19T03:26:44.961Z,-0.82
2022-11-19T03:31:53.626Z,-0.86
2022-11-19T03:37:00.133Z,-0.90
2022-11-19T03:42:10.195Z,-0.93
2022-11-19T03:47:16.747Z,-0.98
2022-11-19T03:52:21.083Z,-0.99
2022-11-19T03:57:27.011Z,-1.02
2022-11-19T04:02:28.852Z,-1.04
2022-11-19T04:07:30.716Z,-1.05
2022-11-19T04:12:32.907Z,-1.05
2022-11-19T04:17:34.936Z,-1.04
2022-11-19T04:22:36.845Z,-1.06
2022-11-19T04:27:38.740Z,-1.10
2022-11-19T04:32:41.509Z,-1.14
2022-11-19T04:37:43.530Z,-1.17
2022-11-19T04:42:45.345Z,-1.20
2022-11-19T04:47:47.202Z,-1.25
2022-11-19T04:52:48.998Z,-1.26
2022-11-19T04:57:52.266Z,-1.26
2022-11-19T05:02:54.282Z,-1.25
2022-11-19T05:07:56.345Z,-1.24
2022-11-19T05:12:58.194Z,-1.26
2022-11-19T05:18:00.037Z,-1.29
2022-11-19T05:23:01.849Z,-1.32
2022-11-19T05:28:03.790Z,-1.34
2022-11-19T05:33:05.818Z,-1.38
2022-11-19T05:38:08.925Z,-1.39
2022-11-19T05:43:10.799Z,-1.41
2022-11-19T05:48:12.597Z,-1.43
2022-11-19T05:53:14.391Z,-1.43
2022-11-19T05:58:16.240Z,-1.45
2022-11-19T06:03:18.329Z,-1.47
2022-11-19T06:08:20.388Z,-1.48
2022-11-19T06:13:22.173Z,-1.52
2022-11-19T06:18:24.179Z,-1.54
2022-11-19T06:23:26.020Z,-1.59
2022-11-19T06:28:30.453Z,-1.66
2022-11-19T06:33:32.418Z,-1.66
2022-11-19T06:38:34.323Z,-1.66
2022-11-19T06:43:36.079Z,-1.61
2022-11-19T06:48:38.281Z,-1.60
2022-11-19T06:53:40.359Z,-1.56
2022-11-19T06:59:10.976Z,-1.52
2022-11-19T07:04:12.936Z,-1.46
2022-11-19T07:09:18.328Z,-1.40
2022-11-19T07:14:23.425Z,-1.32
2022-11-19T07:19:25.332Z,-1.22
2022-11-19T07:24:27.324Z,-1.14
2022-11-19T07:29:29.211Z,-1.10
2022-11-19T07:34:31.158Z,-1.03
2022-11-19T07:39:32.976Z,-0.94
2022-11-19T07:44:34.958Z,-0.86
2022-11-19T07:49:36.900Z,-0.75
2022-11-19T07:54:38.738Z,-0.66
2022-11-19T07:59:40.628Z,-0.56
2022-11-19T08:04:42.867Z,-0.47
2022-11-19T08:09:44.906Z,-0.38
2022-11-19T08:14:46.869Z,-0.27
2022-11-19T08:19:49.069Z,-0.18
2022-11-19T08:24:51.312Z,-0.11
2022-11-19T08:29:53.283Z,-0.04
2022-11-19T08:34:55.141Z,-0.03
2022-11-19T08:39:57.164Z,0.00
2022-11-19T08:44:59.248Z,0.10
2022-11-19T08:50:01.684Z,0.22
2022-11-19T08:55:04.105Z,0.36
2022-11-19T09:00:06.996Z,0.41
2022-11-19T09:05:14.435Z,0.38
2022-11-19T09:10:17.347Z,0.49
2022-11-19T09:15:20.506Z,0.57
2022-11-19T09:20:22.683Z,0.56
2022-11-19T09:25:24.915Z,0.59
2022-11-19T09:30:27.271Z,0.70
2022-11-19T09:35:29.301Z,0.79
2022-11-19T09:40:31.816Z,0.90
2022-11-19T09:45:43.063Z,1.07
2022-11-19T09:50:58.433Z,1.14
2022-11-19T09:56:00.744Z,1.16
2022-11-19T10:01:03.291Z,1.22
2022-11-19T10:06:27.858Z,1.28
2022-11-19T10:12:08.175Z,1.33
2022-11-19T10:17:30.661Z,1.33
2022-11-19T10:23:06.537Z,1.33
2022-11-19T10:28:15.702Z,1.29
2022-11-19T10:33:32.878Z,1.28
2022-11-19T10:38:40.233Z,1.30
2022-11-19T10:43:48.839Z,1.35
2022-11-19T10:48:55.139Z,1.37
2022-11-19T10:53:57.812Z,1.34
2022-11-19T10:59:16.537Z,1.37
2022-11-19T11:04:22.895Z,1.36
2022-11-19T11:09:42.068Z,1.32
2022-11-19T11:14:55.033Z,1.35
2022-11-19T11:20:08.257Z,1.33
2022-11-19T11:25:19.667Z,1.27
2022-11-19T11:30:21.838Z,1.28
2022-11-19T11:35:38.848Z,1.34
2022-11-19T11:40:41.008Z,1.38
2022-11-19T11:45:43.278Z,1.40
2022-11-19T11:50:46.157Z,1.37
2022-11-19T11:55:57.457Z,1.36
2022-11-19T12:01:19.985Z,1.30
2022-11-19T12:06:28.991Z,1.27
2022-11-19T12:11:55.147Z,1.26
2022-11-19T12:17:22.978Z,1.27
2022-11-19T12:22:54.363Z,1.28
2022-11-19T12:28:09.866Z,1.27
2022-11-19T12:33:40.268Z,1.25
2022-11-19T12:38:53.673Z,1.26
2022-11-19T12:44:00.858Z,1.27
2022-11-19T12:49:18.211Z,1.29
2022-11-19T12:54:46.667Z,1.32
2022-11-19T13:00:10.920Z,1.29
2022-11-19T13:05:43.962Z,1.29
2022-11-19T13:10:51.244Z,1.29
2022-11-19T13:16:00.556Z,1.31
2022-11-19T13:21:08.663Z,1.28
2022-11-19T13:26:39.409Z,1.24
2022-11-19T13:32:07.561Z,1.22
2022-11-19T13:37:32.228Z,1.20
2022-11-19T13:43:17.151Z,1.20
2022-11-19T13:48:15.530Z,1.20
2022-11-19T13:53:34.778Z,1.18
2022-11-19T13:58:40.412Z,1.18
2022-11-19T14:04:14.050Z,1.18
2022-11-19T14:09:38.464Z,1.15
2022-11-19T14:15:02.075Z,1.11
2022-11-19T14:20:49.651Z,1.05
2022-11-19T14:26:10.399Z,1.00
2022-11-19T14:31:13.698Z,0.95
2022-11-19T14:36:44.349Z,0.92
2022-11-19T14:41:46.318Z,0.85
2022-11-19T14:46:49.405Z,0.79
2022-11-19T14:51:55.157Z,0.74
2022-11-19T14:57:38.465Z,0.68
2022-11-19T15:02:48.718Z,0.60
2022-11-19T15:08:11.984Z,0.54
2022-11-19T15:13:20.437Z,0.50
2022-11-19T15:18:40.533Z,0.45
2022-11-19T15:24:17.647Z,0.42
2022-11-19T15:29:34.655Z,0.38
2022-11-19T15:35:10.220Z,0.33
2022-11-19T15:40:17.653Z,0.30
2022-11-19T15:45:24.130Z,0.25
2022-11-19T15:50:28.579Z,0.21
2022-11-19T15:55:31.960Z,0.18
2022-11-19T16:00:45.967Z,0.15
2022-11-19T16:06:08.593Z,0.12
2022-11-19T16:11:35.908Z,0.09
2022-11-19T16:16:57.742Z,0.06
2022-11-19T16:22:03.275Z,0.02
2022-11-19T16:27:10.675Z,-0.03
2022-11-19T16:32:19.536Z,-0.07
2022-11-19T16:37:22.346Z,-0.09
2022-11-19T16:42:29.373Z,-0.11
2022-11-19T16:47:51.612Z,-0.14
2022-11-19T16:52:55.002Z,-0.17
2022-11-19T16:58:00.028Z,-0.21
2022-11-19T17:03:16.942Z,-0.23
2022-11-19T17:08:23.560Z,-0.28
2022-11-19T17:13:32.534Z,-0.31
2022-11-19T17:18:34.768Z,-0.33
2022-11-19T17:23:48.337Z,-0.38
2022-11-19T17:28:54.959Z,-0.41
2022-11-19T17:33:58.599Z,-0.48
2022-11-19T17:39:00.582Z,-0.55
2022-11-19T17:44:21.229Z,-0.58
2022-11-19T17:49:23.320Z,-0.59
2022-11-19T17:54:25.662Z,-0.59
2022-11-19T17:59:27.548Z,-0.59
2022-11-19T18:04:29.391Z,-0.62
2022-11-19T18:09:34.897Z,-0.62
2022-11-19T18:14:37.202Z,-0.64
2022-11-19T18:19:39.325Z,-0.66
2022-11-19T18:24:41.175Z,-0.67
2022-11-19T18:29:43.004Z,-0.70
2022-11-19T18:34:46.177Z,-0.70
2022-11-19T18:39:48.462Z,-0.69
2022-11-19T18:44:50.720Z,-0.70
2022-11-19T18:49:52.465Z,-0.71
2022-11-19T18:54:54.905Z,-0.72
2022-11-19T18:59:56.782Z,-0.76
2022-11-19T19:04:58.618Z,-0.78
2022-11-19T19:10:00.817Z,-0.82
2022-11-19T19:15:03.084Z,-0.85
2022-11-19T19:20:06.520Z,-0.89
2022-11-19T19:25:09.233Z,-0.90
2022-11-19T19:30:11.440Z,-0.92
2022-11-19T19:35:13.630Z,-0.96
2022-11-19T19:40:15.402Z,-1.02
2022-11-19T19:45:17.263Z,-1.04
2022-11-19T19:50:19.079Z,-1.05
2022-11-19T19:55:21.029Z,-1.10
2022-11-19T20:00:23.805Z,-1.13
2022-11-19T20:05:25.514Z,-1.15
2022-11-19T20:10:27.318Z,-1.16
2022-11-19T20:15:29.169Z,-1.17
2022-11-19T20:20:31.018Z,-1.20
2022-11-19T20:25:32.859Z,-1.22
2022-11-19T20:30:35.319Z,-1.24
2022-11-19T20:35:37.272Z,-1.27
2022-11-19T20:40:39.293Z,-1.29
2022-11-19T20:45:41.192Z,-1.29
2022-11-19T20:50:42.975Z,-1.29
2022-11-19T20:56:04.628Z,-1.30
2022-11-19T21:01:12.103Z,-1.32
2022-11-19T21:06:13.896Z,-1.35
2022-11-19T21:11:16.453Z,-1.38
2022-11-19T21:16:21.420Z,-1.39
2022-11-19T21:21:24.492Z,-1.41
2022-11-19T21:26:28.116Z,-1.42
2022-11-19T21:31:39.879Z,-1.45
2022-11-19T21:36:43.087Z,-1.48
2022-11-19T21:41:45.013Z,-1.50
2022-11-19T21:46:46.854Z,-1.51
2022-11-19T21:51:49.143Z,-1.51
2022-11-19T21:56:50.950Z,-1.52
2022-11-19T22:01:54.845Z,-1.53
2022-11-19T22:06:56.855Z,-1.57
2022-11-19T22:11:58.701Z,-1.62
2022-11-19T22:17:00.529Z,-1.65
2022-11-19T22:22:03.510Z,-1.68
2022-11-19T22:27:05.261Z,-1.69
2022-11-19T22:32:07.202Z,-1.69
2022-11-19T22:37:08.943Z,-1.69
2022-11-19T22:42:10.771Z,-1.69
2022-11-19T22:47:14.753Z,-1.73
2022-11-19T22:52:17.785Z,-1.76
2022-11-19T22:57:19.491Z,-1.84
2022-11-19T23:02:21.215Z,-1.85
2022-11-19T23:07:23.004Z,-1.89
2022-11-19T23:12:43.335Z,-1.92
2022-11-19T23:17:45.036Z,-1.92
2022-11-19T23:22:46.783Z,-1.90
2022-11-19T23:27:48.540Z,-1.91
2022-11-19T23:32:50.282Z,-1.91
2022-11-19T23:37:52.156Z,-1.88
2022-11-19T23:42:53.895Z,-1.86
2022-11-19T23:47:55.632Z,-1.87
2022-11-19T23:52:57.396Z,-1.87
2022-11-19T23:57:59.144Z,-1.91
